createdAt,value
2022-08-14T00:02:16.422Z,9.95
2022-08-14T00:04:45.033Z,10.80
2022-08-14T00:07:14.734Z,8.25
2022-08-14T00:10:01.651Z,10.57
2022-08-14T00:12:48.065Z,9.55
2022-08-14T00:15:29.894Z,9.02
2022-08-14T00:18:07.158Z,9.93
2022-08-14T00:20:36.027Z,11.57
2022-08-14T00:23:17.216Z,11.30
2022-08-14T00:25:53.867Z,13.30
2022-08-14T00:28:36.889Z,8.95
2022-08-14T00:31:09.623Z,10.75
2022-08-14T00:33:50.776Z,10.07
2022-08-14T00:36:34.912Z,8.18
2022-08-14T00:39:17.822Z,9.38
2022-08-14T00:41:45.969Z,9.75
2022-08-14T00:44:21.528Z,15.43
2022-08-14T00:47:00.968Z,8.70
2022-08-14T00:49:30.048Z,10.98
2022-08-14T00:52:00.482Z,13.63
2022-08-14T00:54:27.312Z,9.30
2022-08-14T00:56:55.520Z,9.05
2022-08-14T00:59:26.589Z,12.80
2022-08-14T01:01:59.740Z,10.80
2022-08-14T01:04:38.139Z,7.68
2022-08-14T01:07:20.604Z,9.60
2022-08-14T01:09:49.490Z,9.45
2022-08-14T01:12:27.251Z,11.45
2022-08-14T01:14:58.332Z,10.77
2022-08-14T01:17:45.958Z,10.52
2022-08-14T01:20:39.659Z,8.85
2022-08-14T01:23:19.099Z,12.02
2022-08-14T01:25:51.340Z,12.93
2022-08-14T01:28:34.472Z,11.60
2022-08-14T01:31:16.807Z,8.85
2022-08-14T01:34:00.517Z,11.07
2022-08-14T01:36:39.343Z,11.95
2022-08-14T01:39:12.845Z,11.30
2022-08-14T01:41:40.514Z,10.55
2022-08-14T01:44:33.186Z,15.55
2022-08-14T01:47:01.248Z,12.05
2022-08-14T01:49:35.163Z,9.13
2022-08-14T01:52:23.253Z,7.63
2022-08-14T01:54:58.089Z,10.85
2022-08-14T01:57:49.409Z,10.07
2022-08-14T02:00:18.836Z,14.90
2022-08-14T02:02:46.587Z,9.15
2022-08-14T02:05:13.853Z,7.13
2022-08-14T02:07:55.324Z,8.90
2022-08-14T02:10:26.020Z,12.77
2022-08-14T02:12:59.554Z,8.98
2022-08-14T02:15:28.824Z,9.80
2022-08-14T02:17:55.578Z,10.98
2022-08-14T02:20:26.011Z,10.15
2022-08-14T02:22:55.242Z,10.75
2022-08-14T02:25:24.944Z,9.15
2022-08-14T02:28:23.588Z,9.13
2022-08-14T02:30:46.086Z,10.88
2022-08-14T02:33:12.837Z,9.18
2022-08-14T02:35:53.265Z,8.38
2022-08-14T02:38:30.291Z,10.45
2022-08-14T02:41:01.172Z,14.27
2022-08-14T02:43:36.536Z,13.00
2022-08-14T02:46:13.034Z,11.73
2022-08-14T02:49:02.843Z,9.63
2022-08-14T02:51:31.447Z,11.43
2022-08-14T02:54:01.864Z,10.95
2022-08-14T02:57:13.969Z,9.07
2022-08-14T02:59:19.441Z,9.57
2022-08-14T03:01:51.182Z,8.18
2022-08-14T03:04:25.293Z,10.18
2022-08-14T03:07:06.103Z,9.95
2022-08-14T03:10:24.489Z,12.27
2022-08-14T03:12:31.741Z,11.50
2022-08-14T03:15:06.335Z,12.18
2022-08-14T03:17:56.046Z,8.63
2022-08-14T03:20:29.029Z,10.93
2022-08-14T03:23:03.036Z,11.00
2022-08-14T03:25:33.463Z,7.93
2022-08-14T03:28:07.099Z,12.73
2022-08-14T03:30:38.857Z,9.05
2022-08-14T03:33:11.751Z,10.38
2022-08-14T03:36:00.329Z,16.55
2022-08-14T03:39:13.605Z,11.30
2022-08-14T03:41:23.919Z,8.43
2022-08-14T03:45:25.439Z,10.52
2022-08-14T03:46:54.840Z,10.73
2022-08-14T03:49:28.877Z,8.38
2022-08-14T03:51:58.186Z,9.80
2022-08-14T03:54:25.934Z,9.15
2022-08-14T03:56:54.676Z,9.90
2022-08-14T03:59:23.596Z,11.98
2022-08-14T04:02:01.364Z,10.48
2022-08-14T04:04:33.589Z,10.82
2022-08-14T04:07:00.841Z,10.85
2022-08-14T04:09:27.987Z,12.25
2022-08-14T04:11:58.179Z,11.80
2022-08-14T04:14:29.102Z,11.45
2022-08-14T04:16:58.306Z,10.57
2022-08-14T04:19:28.006Z,11.63
2022-08-14T04:22:03.951Z,12.00
2022-08-14T04:24:38.169Z,13.68
2022-08-14T04:27:09.634Z,13.82
2022-08-14T04:29:39.534Z,11.38
2022-08-14T04:33:10.698Z,12.05
2022-08-14T04:34:56.173Z,10.38
2022-08-14T04:37:46.324Z,10.35
2022-08-14T04:40:40.455Z,8.13
2022-08-14T04:43:39.032Z,14.43
2022-08-14T04:46:07.181Z,10.02
2022-08-14T04:48:43.186Z,11.27
2022-08-14T04:51:12.305Z,10.98
2022-08-14T04:53:43.958Z,10.45
2022-08-14T04:56:33.674Z,11.05
2022-08-14T04:59:09.971Z,16.95
2022-08-14T05:01:47.645Z,12.88
2022-08-14T05:04:20.005Z,11.95
2022-08-14T05:06:47.286Z,9.73
2022-08-14T05:09:16.262Z,11.35
2022-08-14T05:11:44.602Z,12.25
2022-08-14T05:14:45.381Z,12.10
2022-08-14T05:17:05.663Z,9.13
2022-08-14T05:19:44.288Z,13.35
2022-08-14T05:22:26.998Z,15.70
2022-08-14T05:24:56.134Z,14.85
2022-08-14T05:27:25.384Z,10.98
2022-08-14T05:29:57.720Z,11.82
2022-08-14T05:32:27.580Z,10.18
2022-08-14T05:34:58.758Z,10.50
2022-08-14T05:37:29.751Z,13.07
2022-08-14T05:39:58.259Z,11.15
2022-08-14T05:42:26.913Z,14.07
2022-08-14T05:44:56.318Z,14.65
2022-08-14T05:47:23.846Z,14.18
2022-08-14T05:49:53.154Z,15.07
2022-08-14T05:52:26.322Z,14.18
2022-08-14T05:55:09.298Z,12.02
2022-08-14T05:57:47.850Z,14.57
2022-08-14T06:00:28.302Z,13.90
2022-08-14T06:02:58.251Z,13.90
2022-08-14T06:05:28.789Z,13.38
2022-08-14T06:07:57.343Z,18.55
2022-08-14T06:10:24.306Z,15.82
2022-08-14T06:12:56.510Z,21.48
2022-08-14T06:15:28.990Z,20.88
2022-08-14T06:17:59.066Z,16.63
2022-08-14T06:20:28.249Z,20.15
2022-08-14T06:22:58.149Z,18.25
2022-08-14T06:25:28.385Z,22.73
2022-08-14T06:27:55.351Z,18.02
2022-08-14T06:30:46.215Z,19.48
2022-08-14T06:33:15.596Z,19.48
2022-08-14T06:35:46.702Z,17.13
2022-08-14T06:38:21.518Z,18.95
2022-08-14T06:40:53.291Z,20.58
2022-08-14T06:43:27.004Z,21.88
2022-08-14T06:45:56.997Z,22.45
2022-08-14T06:48:27.272Z,20.77
2022-08-14T06:50:55.007Z,24.52
2022-08-14T06:53:27.807Z,19.85
2022-08-14T06:56:00.551Z,21.10
2022-08-14T06:58:31.341Z,17.75
2022-08-14T07:01:23.092Z,16.42
2022-08-14T07:04:22.664Z,21.73
2022-08-14T07:06:50.138Z,16.13
2022-08-14T07:09:23.296Z,20.30
2022-08-14T07:11:51.796Z,20.23
2022-08-14T07:14:18.627Z,22.60
2022-08-14T07:16:47.598Z,19.33
2022-08-14T07:19:17.646Z,17.23
2022-08-14T07:21:48.034Z,22.58
2022-08-14T07:24:22.068Z,19.40
2022-08-14T07:26:53.366Z,17.20
2022-08-14T07:29:26.097Z,17.38
2022-08-14T07:31:53.579Z,17.20
2022-08-14T07:34:26.335Z,18.55
2022-08-14T07:37:06.148Z,16.67
2022-08-14T07:39:34.464Z,17.08
2022-08-14T07:42:02.009Z,14.60
2022-08-14T07:44:35.549Z,15.65
2022-08-14T07:47:03.684Z,18.55
2022-08-14T07:49:34.385Z,15.15
2022-08-14T07:52:05.022Z,16.95
2022-08-14T07:54:34.238Z,16.88
2022-08-14T07:57:06.615Z,15.85
2022-08-14T07:59:43.764Z,17.38
2022-08-14T08:02:17.149Z,17.67
2022-08-14T08:04:49.577Z,16.33
2022-08-14T08:07:18.599Z,17.10
2022-08-14T08:09:53.246Z,21.42
2022-08-14T08:12:21.687Z,19.02
2022-08-14T08:15:03.417Z,21.13
2022-08-14T08:17:38.820Z,17.92
2022-08-14T08:20:14.741Z,24.35
2022-08-14T08:22:43.475Z,17.52
2022-08-14T08:25:17.844Z,17.38
2022-08-14T08:28:19.730Z,19.80
2022-08-14T08:30:54.471Z,17.92
2022-08-14T08:33:24.575Z,20.75
2022-08-14T08:35:51.355Z,19.95
2022-08-14T08:39:15.701Z,20.45
2022-08-14T08:41:11.209Z,18.33
2022-08-14T08:43:47.116Z,15.90
2022-08-14T08:46:21.208Z,16.75
2022-08-14T08:51:42.903Z,17.27
2022-08-14T08:54:18.684Z,21.98
2022-08-14T08:56:52.044Z,20.83
2022-08-14T08:59:27.091Z,18.25
2022-08-14T09:01:58.849Z,18.30
2022-08-14T09:04:31.266Z,19.45
2022-08-14T09:07:09.183Z,17.95
2022-08-14T09:09:54.323Z,15.48
2022-08-14T09:12:31.454Z,16.45
2022-08-14T09:15:02.915Z,17.63
2022-08-14T09:17:32.175Z,15.88
2022-08-14T09:20:01.962Z,17.75
2022-08-14T09:22:34.835Z,15.90
2022-08-14T09:25:07.181Z,19.10
2022-08-14T09:27:35.816Z,16.33
2022-08-14T09:30:13.312Z,17.13
2022-08-14T09:33:11.021Z,18.02
2022-08-14T09:36:01.885Z,20.35
2022-08-14T09:38:32.426Z,17.40
2022-08-14T09:41:00.713Z,15.65
2022-08-14T09:43:37.254Z,14.20
2022-08-14T09:46:07.619Z,18.67
2022-08-14T09:48:34.429Z,18.52
2022-08-14T09:54:12.810Z,19.42
2022-08-14T09:56:30.054Z,16.50
2022-08-14T09:58:58.841Z,20.20
2022-08-14T10:01:35.080Z,15.55
2022-08-14T10:04:02.983Z,16.38
2022-08-14T10:06:35.608Z,20.13
2022-08-14T10:09:03.013Z,16.45
2022-08-14T10:11:35.936Z,14.98
2022-08-14T10:14:34.927Z,18.52
2022-08-14T10:17:05.985Z,16.50
2022-08-14T10:19:36.421Z,17.98
2022-08-14T10:23:12.842Z,19.50
2022-08-14T10:24:57.436Z,18.10
2022-08-14T10:27:29.117Z,19.50
2022-08-14T10:30:04.224Z,19.10
2022-08-14T10:32:40.132Z,23.40
2022-08-14T10:35:14.386Z,19.38
2022-08-14T10:37:49.954Z,20.48
2022-08-14T10:40:36.869Z,16.58
2022-08-14T10:43:26.693Z,19.95
2022-08-14T10:46:59.008Z,19.77
2022-08-14T10:49:04.269Z,16.45
2022-08-14T10:51:34.207Z,16.45
2022-08-14T10:54:35.207Z,16.85
2022-08-14T10:56:57.904Z,16.30
2022-08-14T10:59:31.333Z,16.75
2022-08-14T11:02:03.108Z,19.33
2022-08-14T11:04:30.862Z,14.93
2022-08-14T11:06:58.024Z,15.65
2022-08-14T11:09:25.919Z,18.52
2022-08-14T11:12:33.793Z,21.35
2022-08-14T11:15:02.268Z,15.15
2022-08-14T11:17:32.183Z,22.75
2022-08-14T11:20:03.544Z,16.40
2022-08-14T11:22:52.306Z,15.43
2022-08-14T11:25:23.901Z,17.88
2022-08-14T11:27:55.275Z,18.38
2022-08-14T11:30:51.225Z,15.15
2022-08-14T11:33:17.118Z,16.60
2022-08-14T11:35:48.382Z,16.25
2022-08-14T11:38:21.568Z,19.15
2022-08-14T11:40:53.154Z,17.17
2022-08-14T11:43:29.174Z,14.60
2022-08-14T11:46:03.636Z,19.38
2022-08-14T11:49:02.106Z,17.95
2022-08-14T11:51:30.423Z,14.52
2022-08-14T11:54:19.843Z,14.30
2022-08-14T11:56:49.950Z,17.90
2022-08-14T11:59:18.647Z,16.38
2022-08-14T12:01:48.855Z,14.18
2022-08-14T12:04:32.377Z,14.85
2022-08-14T12:07:01.190Z,19.80
2022-08-14T12:09:38.337Z,19.45
2022-08-14T12:12:35.110Z,13.35
2022-08-14T12:15:07.177Z,16.17
2022-08-14T12:17:49.747Z,18.65
2022-08-14T12:20:30.028Z,22.85
2022-08-14T12:23:00.659Z,16.13
2022-08-14T12:25:27.611Z,17.30
2022-08-14T12:27:59.448Z,20.90
2022-08-14T12:30:38.107Z,15.07
2022-08-14T12:33:31.034Z,17.73
2022-08-14T12:36:05.888Z,17.40
2022-08-14T12:38:43.944Z,15.18
2022-08-14T12:41:22.151Z,17.33
2022-08-14T12:44:00.201Z,18.40
2022-08-14T12:46:35.201Z,16.50
2022-08-14T12:49:09.073Z,18.52
2022-08-14T12:51:36.787Z,21.20
2022-08-14T12:54:28.419Z,17.90
2022-08-14T12:57:04.932Z,16.25
2022-08-14T12:59:37.127Z,16.27
2022-08-14T13:02:25.428Z,21.23
2022-08-14T13:04:55.980Z,16.33
2022-08-14T13:07:33.434Z,23.30
2022-08-14T13:10:00.623Z,15.10
2022-08-14T13:13:12.023Z,17.13
2022-08-14T13:15:36.567Z,15.80
2022-08-14T13:18:04.994Z,15.95
2022-08-14T13:20:33.490Z,19.10
2022-08-14T13:23:00.714Z,19.30
2022-08-14T13:25:27.845Z,15.43
2022-08-14T13:27:57.650Z,18.15
2022-08-14T13:30:24.985Z,19.25
2022-08-14T13:32:53.230Z,14.40
2022-08-14T13:35:20.154Z,17.42
2022-08-14T13:37:53.780Z,15.07
2022-08-14T13:40:26.460Z,15.85
2022-08-14T13:42:54.084Z,19.40
2022-08-14T13:45:24.330Z,19.02
2022-08-14T13:48:03.207Z,19.23
2022-08-14T13:50:30.030Z,18.85
2022-08-14T13:52:59.762Z,20.25
2022-08-14T13:55:30.264Z,18.58
2022-08-14T13:58:04.457Z,16.00
2022-08-14T14:00:53.318Z,16.30
2022-08-14T14:03:23.650Z,17.13
2022-08-14T14:05:55.280Z,15.82
2022-08-14T14:08:46.001Z,22.63
2022-08-14T14:11:24.107Z,17.25
2022-08-14T14:13:51.884Z,16.58
2022-08-14T14:16:26.446Z,18.58
2022-08-14T14:19:09.862Z,15.00
2022-08-14T14:21:37.182Z,15.52
2022-08-14T14:24:06.028Z,19.98
2022-08-14T14:26:35.999Z,15.38
2022-08-14T14:29:03.279Z,16.83
2022-08-14T14:31:32.557Z,15.15
2022-08-14T14:34:01.089Z,14.80
2022-08-14T14:36:34.672Z,14.13
2022-08-14T14:39:06.031Z,16.85
2022-08-14T14:41:38.088Z,17.55
2022-08-14T14:44:09.433Z,19.92
2022-08-14T14:46:43.401Z,14.65
2022-08-14T14:49:14.640Z,14.82
2022-08-14T14:51:46.877Z,14.73
2022-08-14T14:54:31.510Z,14.75
2022-08-14T14:57:00.216Z,16.85
2022-08-14T14:59:35.966Z,14.05
2022-08-14T15:02:07.770Z,15.32
2022-08-14T15:04:37.676Z,17.73
2022-08-14T15:07:08.120Z,13.60
2022-08-14T15:09:34.907Z,18.30
2022-08-14T15:12:28.029Z,15.00
2022-08-14T15:14:57.790Z,16.10
2022-08-14T15:17:35.339Z,18.80
2022-08-14T15:20:17.619Z,16.38
2022-08-14T15:23:00.915Z,16.15
2022-08-14T15:25:35.570Z,14.50
2022-08-14T15:28:06.371Z,17.52
2022-08-14T15:30:33.153Z,16.23
2022-08-14T15:33:02.977Z,13.93
2022-08-14T15:35:33.970Z,15.25
2022-08-14T15:38:12.461Z,16.52
2022-08-14T15:40:44.645Z,15.82
2022-08-14T15:43:20.747Z,16.10
2022-08-14T15:45:49.270Z,13.05
2022-08-14T15:48:22.215Z,16.58
2022-08-14T15:50:52.137Z,18.50
2022-08-14T15:53:22.389Z,19.38
2022-08-14T15:55:54.634Z,15.82
2022-08-14T15:58:25.195Z,15.90
2022-08-14T16:01:11.660Z,16.80
2022-08-14T16:03:41.039Z,14.55
2022-08-14T16:06:15.670Z,18.70
2022-08-14T16:08:50.413Z,14.63
2022-08-14T16:11:24.811Z,19.08
2022-08-14T16:13:51.620Z,18.42
2022-08-14T16:16:46.966Z,14.95
2022-08-14T16:19:14.822Z,16.90
2022-08-14T16:22:01.239Z,18.58
2022-08-14T16:24:33.399Z,16.10
2022-08-14T16:27:01.480Z,17.85
2022-08-14T16:29:31.453Z,18.95
2022-08-14T16:32:00.299Z,17.20
2022-08-14T16:34:44.618Z,16.58
2022-08-14T16:37:16.580Z,17.75
2022-08-14T16:39:43.444Z,20.33
2022-08-14T16:43:02.232Z,14.95
2022-08-14T16:44:58.759Z,18.42
2022-08-14T16:47:32.006Z,20.35
2022-08-14T16:50:05.489Z,18.13
2022-08-14T16:52:44.937Z,18.65
2022-08-14T16:55:22.454Z,18.90
2022-08-14T16:57:59.786Z,18.25
2022-08-14T17:00:43.175Z,21.25
2022-08-14T17:03:11.962Z,18.05
2022-08-14T17:05:46.676Z,16.65
2022-08-14T17:08:41.379Z,18.10
2022-08-14T17:11:10.984Z,19.02
2022-08-14T17:13:59.591Z,25.85
2022-08-14T17:16:35.959Z,18.58
2022-08-14T17:19:05.544Z,19.33
2022-08-14T17:21:38.106Z,22.27
2022-08-14T17:27:03.917Z,23.15
2022-08-14T17:29:33.255Z,23.67
2022-08-14T17:32:28.416Z,22.02
2022-08-14T17:37:56.074Z,23.90
2022-08-14T17:40:26.538Z,21.63
2022-08-14T17:43:01.659Z,21.63
2022-08-14T17:45:41.350Z,20.25
2022-08-14T17:49:13.763Z,18.90
2022-08-14T17:51:12.174Z,17.80
2022-08-14T17:53:39.209Z,16.23
2022-08-14T17:56:20.632Z,24.10
2022-08-14T17:58:48.598Z,17.23
2022-08-14T18:01:16.778Z,19.67
2022-08-14T18:03:53.871Z,19.75
2022-08-14T18:06:39.138Z,16.67
2022-08-14T18:09:24.550Z,15.88
2022-08-14T18:11:54.275Z,21.45
2022-08-14T18:14:32.875Z,20.65
2022-08-14T18:17:12.351Z,18.80
2022-08-14T18:19:45.137Z,18.52
2022-08-14T18:22:23.942Z,19.45
2022-08-14T18:25:02.392Z,19.70
2022-08-14T18:27:41.775Z,15.75
2022-08-14T18:30:31.691Z,18.08
2022-08-14T18:32:59.251Z,15.73
2022-08-14T18:35:56.897Z,14.80
2022-08-14T18:38:55.298Z,14.00
2022-08-14T18:41:37.119Z,16.40
2022-08-14T18:44:10.362Z,20.55
2022-08-14T18:47:22.425Z,19.52
2022-08-14T18:50:19.126Z,11.80
2022-08-14T18:52:54.793Z,15.00
2022-08-14T18:55:22.349Z,14.63
2022-08-14T18:57:58.229Z,16.20
2022-08-14T19:00:32.883Z,14.40
2022-08-14T19:03:00.708Z,12.82
2022-08-14T19:05:47.928Z,15.55
2022-08-14T19:08:18.431Z,14.43
2022-08-14T19:10:49.454Z,18.92
2022-08-14T19:13:48.546Z,12.98
2022-08-14T19:16:18.581Z,18.05
2022-08-14T19:18:53.274Z,16.35
2022-08-14T19:21:29.870Z,16.35
2022-08-14T19:24:30.814Z,19.80
2022-08-14T19:27:24.625Z,11.00
2022-08-14T19:30:20.272Z,15.13
2022-08-14T19:32:52.265Z,11.68
2022-08-14T19:35:24.306Z,15.88
2022-08-14T19:37:55.420Z,14.52
2022-08-14T19:40:40.071Z,13.18
2022-08-14T19:43:09.295Z,13.80
2022-08-14T19:45:39.319Z,17.33
2022-08-14T19:48:15.844Z,15.65
2022-08-14T19:50:46.750Z,19.27
2022-08-14T19:53:17.232Z,19.90
2022-08-14T19:55:54.863Z,16.00
2022-08-14T19:58:38.432Z,13.43
2022-08-14T20:01:37.670Z,14.75
2022-08-14T20:04:22.841Z,15.23
2022-08-14T20:07:04.420Z,17.95
2022-08-14T20:11:04.105Z,13.65
2022-08-14T20:12:28.878Z,13.02
2022-08-14T20:15:17.774Z,12.85
2022-08-14T20:17:52.935Z,16.38
2022-08-14T20:20:31.706Z,14.60
2022-08-14T20:23:10.822Z,16.45
2022-08-14T20:25:45.403Z,14.15
2022-08-14T20:28:29.979Z,15.68
2022-08-14T20:31:17.894Z,12.32
2022-08-14T20:34:06.231Z,19.52
2022-08-14T20:36:37.045Z,15.80
2022-08-14T20:39:07.597Z,15.30
2022-08-14T20:41:34.391Z,15.50
2022-08-14T20:44:20.667Z,17.23
2022-08-14T20:46:50.514Z,17.30
2022-08-14T20:49:27.055Z,15.48
2022-08-14T20:52:00.159Z,15.88
2022-08-14T20:54:33.864Z,13.73
2022-08-14T20:57:12.089Z,16.23
2022-08-14T20:59:51.395Z,18.45
2022-08-14T21:02:34.577Z,14.52
2022-08-14T21:05:16.781Z,17.35
2022-08-14T21:07:52.107Z,18.23
2022-08-14T21:10:33.870Z,15.90
2022-08-14T21:14:08.944Z,15.00
2022-08-14T21:16:32.928Z,18.08
2022-08-14T21:18:57.172Z,18.08
2022-08-14T21:21:40.512Z,21.70
2022-08-14T21:24:40.205Z,16.23
2022-08-14T21:27:12.235Z,19.60
2022-08-14T21:29:49.879Z,18.90
2022-08-14T21:32:33.735Z,20.17
2022-08-14T21:35:08.509Z,17.20
2022-08-14T21:37:50.610Z,18.23
2022-08-14T21:40:41.892Z,18.80
2022-08-14T21:43:18.047Z,29.25
2022-08-14T21:45:51.907Z,17.00
2022-08-14T21:48:21.419Z,19.50
2022-08-14T21:51:01.454Z,19.30
2022-08-14T21:53:59.401Z,20.50
2022-08-14T21:56:38.448Z,17.85
2022-08-14T21:59:09.014Z,18.45
2022-08-14T22:02:01.543Z,20.70
2022-08-14T22:04:32.961Z,19.73
2022-08-14T22:07:01.876Z,18.48
2022-08-14T22:09:32.381Z,15.55
2022-08-14T22:12:08.108Z,21.40
2022-08-14T22:14:43.704Z,20.42
2022-08-14T22:17:16.350Z,18.48
2022-08-14T22:19:54.437Z,18.52
2022-08-14T22:22:24.013Z,16.35
2022-08-14T22:24:59.688Z,20.50
2022-08-14T22:27:29.441Z,21.40
2022-08-14T22:29:59.044Z,17.25
2022-08-14T22:32:56.773Z,22.90
2022-08-14T22:35:17.564Z,18.70
2022-08-14T22:37:45.049Z,21.35
2022-08-14T22:40:50.731Z,19.10
2022-08-14T22:43:01.301Z,16.48
2022-08-14T22:45:36.509Z,19.45
2022-08-14T22:48:11.178Z,20.42
2022-08-14T22:50:53.085Z,19.13
2022-08-14T22:53:23.824Z,19.13
2022-08-14T22:55:56.724Z,24.20
2022-08-14T22:58:31.381Z,18.27
2022-08-14T23:01:01.623Z,18.77
2022-08-14T23:03:34.237Z,22.13
2022-08-14T23:06:02.245Z,21.40
2022-08-14T23:08:59.425Z,21.58
2022-08-14T23:11:18.101Z,19.88
2022-08-14T23:13:46.141Z,18.58
2022-08-14T23:16:20.422Z,21.65
2022-08-14T23:18:53.872Z,19.08
2022-08-14T23:21:24.115Z,22.38
2022-08-14T23:23:51.895Z,19.50
2022-08-14T23:26:49.449Z,23.30
2022-08-14T23:29:12.850Z,17.48
2022-08-14T23:31:45.153Z,21.63
2022-08-14T23:34:20.925Z,19.63
2022-08-14T23:36:55.258Z,21.30
2022-08-14T23:39:29.635Z,19.65
2022-08-14T23:41:58.134Z,20.83
2022-08-14T23:44:34.761Z,21.60
2022-08-14T23:47:03.463Z,18.42
2022-08-14T23:49:55.495Z,18.27
2022-08-14T23:52:56.317Z,21.13
2022-08-14T23:55:11.046Z,23.83
2022-08-14T23:57:43.594Z,26.10
